createdAt,value
2023-01-19T00:00:21.723Z,0.93
2023-01-19T00:02:48.788Z,1.20
2023-01-19T00:05:15.761Z,2.15
2023-01-19T00:07:42.911Z,1.45
2023-01-19T00:10:10.592Z,1.27
2023-01-19T00:12:37.435Z,1.45
2023-01-19T00:15:04.861Z,1.35
2023-01-19T00:17:31.759Z,1.90
2023-01-19T00:19:58.620Z,1.58
2023-01-19T00:22:25.509Z,2.00
2023-01-19T00:24:52.391Z,2.17
2023-01-19T00:27:19.313Z,2.10
2023-01-19T00:29:46.172Z,1.63
2023-01-19T00:32:13.063Z,3.15
2023-01-19T00:34:42.669Z,2.80
2023-01-19T00:37:10.182Z,2.92
2023-01-19T00:39:37.051Z,2.47
2023-01-19T00:42:22.438Z,3.33
2023-01-19T00:44:49.263Z,2.00
2023-01-19T00:47:16.129Z,1.83
2023-01-19T00:49:42.932Z,1.48
2023-01-19T00:52:09.778Z,1.20
2023-01-19T00:54:36.661Z,1.60
2023-01-19T00:57:03.615Z,1.40
2023-01-19T00:59:30.427Z,1.08
2023-01-19T01:01:57.402Z,1.05
2023-01-19T01:04:24.407Z,5.75
2023-01-19T01:06:51.269Z,9.27
2023-01-19T01:09:18.139Z,11.55
2023-01-19T01:11:45.074Z,8.88
2023-01-19T01:14:12.736Z,6.50
2023-01-19T01:16:40.002Z,4.35
2023-01-19T01:19:07.260Z,2.00
2023-01-19T01:21:34.774Z,1.30
2023-01-19T01:24:02.128Z,0.93
2023-01-19T01:26:29.041Z,0.73
2023-01-19T01:28:55.896Z,0.57
2023-01-19T01:31:22.746Z,0.47
2023-01-19T01:33:49.598Z,0.70
2023-01-19T01:36:16.539Z,0.40
2023-01-19T01:38:43.369Z,0.40
2023-01-19T01:41:10.638Z,0.40
2023-01-19T01:43:52.984Z,0.60
2023-01-19T01:46:20.753Z,0.35
2023-01-19T01:49:11.273Z,0.40
2023-01-19T01:51:46.987Z,0.50
2023-01-19T01:54:25.969Z,0.40
2023-01-19T01:56:55.983Z,0.40
2023-01-19T01:59:34.871Z,0.60
2023-01-19T02:02:25.900Z,0.50
2023-01-19T02:07:51.512Z,0.40
2023-01-19T02:10:36.879Z,0.50
2023-01-19T02:13:22.520Z,0.70
2023-01-19T02:15:52.665Z,0.50
2023-01-19T02:18:22.466Z,0.60
2023-01-19T02:20:59.960Z,0.60
2023-01-19T02:23:45.248Z,0.50
2023-01-19T02:26:42.984Z,0.65
2023-01-19T02:29:13.364Z,0.60
2023-01-19T02:31:41.144Z,0.40
2023-01-19T02:34:10.431Z,0.68
2023-01-19T02:36:49.485Z,0.80
2023-01-19T02:39:20.684Z,0.85
2023-01-19T02:41:52.690Z,0.70
2023-01-19T02:44:21.370Z,0.77
2023-01-19T02:46:48.452Z,0.80
2023-01-19T02:49:15.382Z,0.90
2023-01-19T02:51:44.279Z,1.00
2023-01-19T02:54:41.673Z,0.80
2023-01-19T02:57:25.858Z,0.90
2023-01-19T03:00:02.587Z,0.90
2023-01-19T03:02:48.274Z,0.80
2023-01-19T03:05:34.191Z,0.60
2023-01-19T03:08:19.737Z,0.70
2023-01-19T03:11:08.929Z,0.73
2023-01-19T03:13:47.685Z,0.82
2023-01-19T03:16:38.527Z,0.60
2023-01-19T03:19:28.452Z,0.80
2023-01-19T03:21:59.353Z,0.60
2023-01-19T03:24:31.512Z,0.60
2023-01-19T03:27:06.993Z,0.70
2023-01-19T03:29:36.990Z,0.70
2023-01-19T03:32:10.508Z,1.00
2023-01-19T03:34:39.413Z,0.90
2023-01-19T03:37:10.110Z,0.98
2023-01-19T03:39:37.426Z,0.80
2023-01-19T03:42:11.699Z,0.90
2023-01-19T03:44:40.386Z,1.30
2023-01-19T03:47:09.945Z,1.08
2023-01-19T03:49:38.441Z,0.80
2023-01-19T03:52:06.002Z,1.25
2023-01-19T03:54:32.916Z,1.25
2023-01-19T03:56:59.773Z,1.40
2023-01-19T03:59:26.916Z,1.50
2023-01-19T04:01:53.849Z,1.50
2023-01-19T04:04:20.730Z,1.92
2023-01-19T04:06:47.662Z,2.28
2023-01-19T04:09:14.490Z,2.70
2023-01-19T04:11:41.297Z,2.55
2023-01-19T04:14:08.175Z,3.13
2023-01-19T04:16:35.264Z,3.95
2023-01-19T04:19:02.169Z,4.03
2023-01-19T04:21:29.032Z,5.10
2023-01-19T04:23:55.834Z,5.38
2023-01-19T04:26:23.400Z,6.55
2023-01-19T04:28:50.269Z,6.07
2023-01-19T04:31:17.103Z,7.03
2023-01-19T04:33:43.907Z,7.47
2023-01-19T04:36:10.817Z,7.50
2023-01-19T04:38:37.732Z,7.22
2023-01-19T04:41:04.746Z,8.48
2023-01-19T04:43:31.675Z,8.07
2023-01-19T04:45:59.100Z,8.52
2023-01-19T04:48:25.937Z,10.00
2023-01-19T04:50:52.912Z,8.98
2023-01-19T04:53:19.915Z,9.27
2023-01-19T04:55:46.904Z,8.93
2023-01-19T04:58:14.048Z,8.30
2023-01-19T05:00:40.959Z,10.63
2023-01-19T05:03:07.812Z,9.77
2023-01-19T05:05:34.917Z,10.40
2023-01-19T05:08:01.755Z,10.30
2023-01-19T05:10:28.772Z,9.77
2023-01-19T05:12:55.990Z,10.65
2023-01-19T05:15:23.573Z,11.00
2023-01-19T05:17:50.636Z,10.98
2023-01-19T05:20:17.686Z,10.13
2023-01-19T05:22:50.631Z,11.73
2023-01-19T05:25:17.578Z,11.13
2023-01-19T05:27:44.952Z,10.73
2023-01-19T05:30:13.566Z,11.35
2023-01-19T05:32:40.827Z,11.23
2023-01-19T05:35:08.426Z,11.23
2023-01-19T05:37:35.252Z,10.57
2023-01-19T05:40:02.178Z,10.20
2023-01-19T05:42:30.783Z,9.93
2023-01-19T05:44:59.587Z,10.68
2023-01-19T05:47:26.728Z,10.93
2023-01-19T05:49:53.591Z,9.75
2023-01-19T05:52:20.438Z,11.60
2023-01-19T05:54:48.267Z,10.40
2023-01-19T05:57:15.231Z,10.35
2023-01-19T05:59:42.113Z,10.45
2023-01-19T06:02:09.093Z,10.77
2023-01-19T06:04:36.019Z,10.35
2023-01-19T06:07:03.010Z,11.07
2023-01-19T06:09:29.871Z,11.27
2023-01-19T06:11:57.824Z,10.73
2023-01-19T06:14:25.163Z,11.88
2023-01-19T06:16:52.608Z,10.23
2023-01-19T06:19:19.560Z,10.60
2023-01-19T06:21:52.201Z,11.02
2023-01-19T06:24:19.602Z,10.35
2023-01-19T06:26:46.556Z,10.20
2023-01-19T06:29:13.848Z,10.73
2023-01-19T06:31:41.171Z,11.73
2023-01-19T06:34:08.243Z,11.43
2023-01-19T06:36:35.113Z,11.18
2023-01-19T06:39:06.053Z,10.40
2023-01-19T06:41:34.133Z,9.80
2023-01-19T06:44:01.404Z,9.82
2023-01-19T06:46:28.489Z,10.23
2023-01-19T06:48:55.549Z,9.43
2023-01-19T06:51:23.158Z,8.65
2023-01-19T06:53:50.294Z,8.63
2023-01-19T06:56:17.119Z,9.57
2023-01-19T06:58:46.673Z,8.88
2023-01-19T07:01:13.948Z,8.88
2023-01-19T07:03:40.909Z,8.50
2023-01-19T07:06:07.931Z,9.77
2023-01-19T07:08:38.276Z,8.85
2023-01-19T07:11:25.729Z,9.68
2023-01-19T07:13:55.561Z,8.45
2023-01-19T07:16:23.217Z,7.90
2023-01-19T07:18:50.287Z,8.95
2023-01-19T07:21:17.405Z,7.93
2023-01-19T07:23:44.246Z,8.60
2023-01-19T07:26:11.285Z,8.77
2023-01-19T07:28:38.209Z,8.45
2023-01-19T07:31:05.721Z,7.80
2023-01-19T07:33:33.079Z,7.72
2023-01-19T07:35:59.932Z,8.00
2023-01-19T07:38:26.927Z,8.68
2023-01-19T07:41:06.808Z,8.18
2023-01-19T07:43:34.622Z,7.72
2023-01-19T07:46:03.537Z,9.05
2023-01-19T07:48:30.508Z,8.45
2023-01-19T07:51:05.869Z,8.63
2023-01-19T07:53:32.971Z,8.73
2023-01-19T07:55:59.877Z,9.73
2023-01-19T07:58:27.091Z,8.93
2023-01-19T08:00:54.063Z,8.70
2023-01-19T08:03:21.075Z,8.20
2023-01-19T08:05:53.007Z,8.65
2023-01-19T08:08:20.386Z,8.05
2023-01-19T08:10:51.571Z,7.82
2023-01-19T08:13:18.713Z,7.75
2023-01-19T08:15:45.765Z,9.65
2023-01-19T08:18:15.689Z,8.73
2023-01-19T08:20:42.676Z,10.30
2023-01-19T08:23:09.731Z,9.57
2023-01-19T08:25:45.244Z,8.35
2023-01-19T08:28:15.083Z,7.43
2023-01-19T08:30:44.515Z,8.50
2023-01-19T08:33:14.560Z,7.28
2023-01-19T08:35:42.923Z,8.20
2023-01-19T08:38:10.871Z,8.18
2023-01-19T08:40:39.677Z,6.40
2023-01-19T08:43:12.929Z,7.30
2023-01-19T08:45:46.625Z,7.43
2023-01-19T08:48:14.239Z,6.60
2023-01-19T08:50:41.215Z,7.05
2023-01-19T08:53:08.346Z,7.13
2023-01-19T08:55:36.562Z,7.25
2023-01-19T08:58:05.261Z,7.55
2023-01-19T09:00:37.959Z,7.47
2023-01-19T09:03:11.294Z,7.70
2023-01-19T09:05:39.144Z,6.90
2023-01-19T09:08:09.286Z,6.43
2023-01-19T09:10:37.988Z,7.30
2023-01-19T09:13:11.045Z,6.90
2023-01-19T09:15:39.505Z,7.47
2023-01-19T09:18:13.779Z,7.47
2023-01-19T09:20:42.799Z,7.10
2023-01-19T09:23:11.229Z,7.78
2023-01-19T09:25:39.291Z,6.82
2023-01-19T09:28:07.746Z,7.97
2023-01-19T09:30:37.201Z,9.25
2023-01-19T09:33:06.458Z,9.13
2023-01-19T09:35:34.755Z,8.13
2023-01-19T09:38:01.942Z,8.75
2023-01-19T09:40:29.800Z,7.78
2023-01-19T09:43:06.338Z,7.68
2023-01-19T09:45:46.148Z,7.50
2023-01-19T09:48:19.107Z,6.97
2023-01-19T09:50:48.432Z,8.25
2023-01-19T09:53:25.221Z,8.35
2023-01-19T09:55:52.471Z,7.72
2023-01-19T09:58:19.771Z,9.30
2023-01-19T10:00:56.248Z,8.13
2023-01-19T10:03:24.428Z,8.13
2023-01-19T10:06:03.806Z,8.40
2023-01-19T10:09:15.286Z,6.80
2023-01-19T10:11:55.547Z,7.85
2023-01-19T10:14:44.638Z,10.00
2023-01-19T10:17:23.099Z,12.20
2023-01-19T10:19:54.205Z,9.35
2023-01-19T10:22:24.096Z,9.80
2023-01-19T10:25:06.878Z,9.73
2023-01-19T10:27:37.701Z,8.70
2023-01-19T10:30:07.629Z,8.70
2023-01-19T10:32:38.834Z,8.63
2023-01-19T10:35:21.733Z,8.10
2023-01-19T10:37:49.502Z,8.82
2023-01-19T10:40:27.398Z,8.27
2023-01-19T10:42:54.627Z,8.55
2023-01-19T10:45:27.255Z,9.15
2023-01-19T10:47:57.754Z,8.65
2023-01-19T10:50:30.768Z,9.25
2023-01-19T10:53:02.063Z,9.07
2023-01-19T10:55:30.545Z,9.13
2023-01-19T10:57:58.776Z,7.43
2023-01-19T11:00:34.433Z,8.57
2023-01-19T11:03:01.988Z,10.35
2023-01-19T11:05:32.087Z,10.70
2023-01-19T11:07:59.077Z,10.27
2023-01-19T11:10:30.285Z,8.70
2023-01-19T11:13:12.947Z,10.25
2023-01-19T11:16:16.458Z,8.90
2023-01-19T11:18:44.325Z,7.82
2023-01-19T11:21:16.644Z,9.57
2023-01-19T11:23:53.190Z,11.10
2023-01-19T11:26:31.353Z,12.05
2023-01-19T11:29:00.734Z,10.18
2023-01-19T11:31:31.398Z,10.02
2023-01-19T11:34:22.838Z,10.13
2023-01-19T11:37:18.378Z,9.95
2023-01-19T11:39:53.851Z,10.82
2023-01-19T11:42:21.659Z,11.50
2023-01-19T11:45:00.326Z,9.85
2023-01-19T11:47:42.367Z,11.30
2023-01-19T11:50:36.467Z,10.50
2023-01-19T11:53:16.874Z,12.68
2023-01-19T11:56:04.852Z,10.65
2023-01-19T11:58:37.750Z,10.90
2023-01-19T12:01:14.484Z,10.55
2023-01-19T12:03:54.750Z,10.50
2023-01-19T12:06:44.824Z,9.32
2023-01-19T12:09:31.214Z,9.18
2023-01-19T12:12:04.133Z,9.15
2023-01-19T12:15:08.226Z,8.30
2023-01-19T12:17:58.536Z,9.70
2023-01-19T12:20:36.715Z,11.80
2023-01-19T12:23:24.503Z,10.15
2023-01-19T12:25:56.819Z,10.15
2023-01-19T12:28:31.760Z,13.07
2023-01-19T12:31:01.077Z,9.57
2023-01-19T12:33:37.771Z,12.68
2023-01-19T12:36:04.886Z,11.63
2023-01-19T12:38:40.880Z,11.45
2023-01-19T12:41:36.987Z,9.57
2023-01-19T12:44:14.012Z,10.05
2023-01-19T12:46:51.761Z,10.73
2023-01-19T12:49:39.213Z,11.20
2023-01-19T12:52:28.639Z,12.10
2023-01-19T12:55:13.332Z,10.77
2023-01-19T12:57:41.774Z,9.95
2023-01-19T13:00:30.427Z,9.48
2023-01-19T13:03:03.191Z,9.82
2023-01-19T13:05:38.869Z,9.63
2023-01-19T13:08:06.291Z,10.30
2023-01-19T13:11:05.140Z,10.07
2023-01-19T13:13:42.396Z,10.52
2023-01-19T13:16:29.816Z,10.43
2023-01-19T13:19:05.426Z,13.95
2023-01-19T13:21:34.715Z,12.00
2023-01-19T13:24:05.628Z,10.45
2023-01-19T13:26:41.541Z,10.23
2023-01-19T13:29:15.783Z,13.48
2023-01-19T13:31:52.774Z,12.73
2023-01-19T13:34:24.408Z,11.73
2023-01-19T13:39:27.934Z,10.23
2023-01-19T13:41:59.310Z,9.95
2023-01-19T13:44:29.892Z,9.73
2023-01-19T13:46:59.386Z,10.63
2023-01-19T13:49:35.245Z,9.82
2023-01-19T13:52:12.827Z,10.35
2023-01-19T13:54:54.979Z,10.25
2023-01-19T13:57:26.039Z,9.18
2023-01-19T14:00:16.859Z,9.70
2023-01-19T14:03:17.847Z,9.40
2023-01-19T14:05:45.209Z,9.82
2023-01-19T14:08:13.481Z,9.27
2023-01-19T14:10:56.485Z,10.23
2023-01-19T14:13:30.938Z,10.43
2023-01-19T14:16:01.297Z,11.52
2023-01-19T14:18:30.249Z,11.52
2023-01-19T14:21:01.471Z,13.55
2023-01-19T14:23:49.401Z,12.00
2023-01-19T14:26:45.578Z,16.05
2023-01-19T14:29:32.873Z,13.57
2023-01-19T14:32:18.481Z,12.93
2023-01-19T14:35:04.278Z,12.75
2023-01-19T14:37:46.080Z,24.00
2023-01-19T14:40:15.655Z,16.20
2023-01-19T14:42:53.764Z,14.75
2023-01-19T14:45:22.370Z,14.00
2023-01-19T14:48:03.164Z,12.15
2023-01-19T14:50:36.845Z,13.13
2023-01-19T14:53:07.420Z,10.98
2023-01-19T14:55:44.466Z,11.13
2023-01-19T14:58:13.324Z,11.57
2023-01-19T15:00:41.158Z,12.23
2023-01-19T15:03:09.935Z,13.65
2023-01-19T15:05:42.161Z,12.32
2023-01-19T15:08:14.908Z,16.13
2023-01-19T15:10:41.859Z,12.55
2023-01-19T15:13:18.904Z,13.45
2023-01-19T15:15:45.839Z,12.85
2023-01-19T15:18:17.235Z,12.43
2023-01-19T15:20:44.055Z,11.73
2023-01-19T15:23:11.960Z,12.18
2023-01-19T15:25:39.632Z,11.80
2023-01-19T15:28:13.004Z,11.75
2023-01-19T15:30:40.103Z,13.95
2023-01-19T15:33:09.411Z,13.65
2023-01-19T15:35:36.249Z,14.18
2023-01-19T15:38:03.068Z,13.45
2023-01-19T15:40:31.567Z,13.30
2023-01-19T15:42:58.431Z,13.90
2023-01-19T15:45:31.433Z,14.02
2023-01-19T15:47:58.603Z,12.63
2023-01-19T15:50:26.163Z,14.20
2023-01-19T15:52:53.196Z,13.88
2023-01-19T15:55:20.125Z,14.68
2023-01-19T15:57:48.042Z,18.30
2023-01-19T16:00:15.818Z,17.83
2023-01-19T16:02:42.663Z,17.48
2023-01-19T16:05:10.188Z,19.98
2023-01-19T16:07:37.447Z,18.17
2023-01-19T16:10:06.410Z,18.17
2023-01-19T16:12:33.271Z,17.25
2023-01-19T16:15:00.086Z,16.50
2023-01-19T16:17:27.703Z,15.90
2023-01-19T16:19:54.625Z,16.00
2023-01-19T16:22:21.464Z,15.75
2023-01-19T16:24:48.294Z,26.52
2023-01-19T16:27:15.102Z,22.30
2023-01-19T16:29:41.937Z,21.95
2023-01-19T16:32:08.776Z,19.80
2023-01-19T16:34:35.630Z,17.73
2023-01-19T16:37:02.470Z,16.23
2023-01-19T16:39:29.331Z,17.42
2023-01-19T16:41:56.155Z,20.38
2023-01-19T16:44:23.132Z,16.67
2023-01-19T16:46:50.108Z,37.42
2023-01-19T16:49:23.025Z,23.85
2023-01-19T16:51:50.647Z,20.60
2023-01-19T16:54:23.255Z,19.83
2023-01-19T16:56:50.173Z,18.75
2023-01-19T16:59:17.707Z,17.98
2023-01-19T17:01:45.568Z,18.50
2023-01-19T17:04:13.313Z,18.98
2023-01-19T17:06:40.624Z,21.85
2023-01-19T17:09:09.472Z,20.20
2023-01-19T17:11:36.960Z,18.75
2023-01-19T17:14:10.217Z,19.55
2023-01-19T17:16:37.299Z,20.83
2023-01-19T17:19:07.054Z,18.40
2023-01-19T17:21:34.309Z,18.67
2023-01-19T17:24:01.992Z,19.98
2023-01-19T17:26:30.976Z,19.45
2023-01-19T17:29:02.174Z,20.25
2023-01-19T17:31:30.031Z,18.55
2023-01-19T17:33:57.044Z,18.50
2023-01-19T17:36:25.630Z,18.10
2023-01-19T17:38:53.946Z,17.58
2023-01-19T17:41:24.134Z,18.35
2023-01-19T17:43:52.161Z,19.27
2023-01-19T17:46:21.287Z,19.00
2023-01-19T17:49:07.899Z,19.08
2023-01-19T17:51:35.169Z,21.35
2023-01-19T17:54:02.077Z,20.63
2023-01-19T17:56:33.101Z,19.17
2023-01-19T17:58:59.902Z,20.05
2023-01-19T18:01:29.366Z,19.70
2023-01-19T18:03:57.162Z,20.83
2023-01-19T18:06:24.081Z,19.38
2023-01-19T18:08:52.501Z,19.42
2023-01-19T18:11:20.795Z,20.80
2023-01-19T18:13:49.615Z,20.70
2023-01-19T18:16:20.224Z,20.33
2023-01-19T18:18:49.424Z,20.33
2023-01-19T18:21:17.224Z,19.98
2023-01-19T18:23:45.204Z,22.30
2023-01-19T18:26:17.899Z,21.17
2023-01-19T18:28:45.220Z,22.75
2023-01-19T18:31:15.374Z,20.40
2023-01-19T18:33:42.605Z,24.50
2023-01-19T18:36:09.959Z,23.05
2023-01-19T18:38:38.038Z,22.73
2023-01-19T18:41:08.199Z,23.73
2023-01-19T18:43:35.338Z,24.25
2023-01-19T18:46:02.354Z,24.88
2023-01-19T18:48:29.564Z,27.55
2023-01-19T18:50:56.741Z,31.00
2023-01-19T18:53:24.424Z,29.23
2023-01-19T18:55:57.228Z,30.52
2023-01-19T18:58:24.782Z,29.48
2023-01-19T19:00:51.727Z,28.25
2023-01-19T19:03:18.596Z,28.38
2023-01-19T19:05:45.490Z,27.85
2023-01-19T19:08:12.521Z,28.67
2023-01-19T19:10:41.778Z,26.88
2023-01-19T19:13:11.191Z,29.17
2023-01-19T19:15:38.164Z,28.98
2023-01-19T19:18:05.084Z,31.80
2023-01-19T19:20:31.909Z,31.65
2023-01-19T19:22:58.764Z,34.38
2023-01-19T19:25:25.566Z,32.03
2023-01-19T19:27:53.000Z,31.42
2023-01-19T19:30:20.923Z,29.73
2023-01-19T19:32:56.112Z,29.70
2023-01-19T19:35:26.310Z,28.30
2023-01-19T19:37:57.460Z,28.58
2023-01-19T19:40:28.632Z,26.42
2023-01-19T19:42:58.464Z,27.05
2023-01-19T19:45:25.683Z,27.23
2023-01-19T19:47:52.523Z,29.35
2023-01-19T19:50:19.477Z,29.60
2023-01-19T19:52:46.390Z,33.08
2023-01-19T19:55:13.282Z,33.92
2023-01-19T19:57:40.531Z,33.38
2023-01-19T20:00:08.594Z,34.33
2023-01-19T20:02:35.533Z,33.92
2023-01-19T20:05:02.478Z,34.03
2023-01-19T20:07:29.443Z,32.22
2023-01-19T20:09:56.309Z,32.22
2023-01-19T20:12:23.232Z,34.70
2023-01-19T20:14:50.104Z,32.63
2023-01-19T20:17:17.092Z,33.00
2023-01-19T20:19:45.640Z,32.88
2023-01-19T20:22:12.810Z,34.08
2023-01-19T20:24:39.646Z,30.88
2023-01-19T20:27:06.504Z,28.33
2023-01-19T20:29:33.400Z,29.65
2023-01-19T20:32:00.323Z,27.27
2023-01-19T20:34:33.059Z,28.38
2023-01-19T20:37:01.783Z,29.75
2023-01-19T20:39:30.315Z,25.35
2023-01-19T20:41:57.414Z,24.55
2023-01-19T20:44:26.407Z,23.88
2023-01-19T20:46:54.054Z,26.33
2023-01-19T20:49:21.449Z,32.42
2023-01-19T20:51:48.725Z,27.98
2023-01-19T20:54:18.337Z,29.38
2023-01-19T20:56:45.351Z,26.40
2023-01-19T20:59:13.167Z,26.92
2023-01-19T21:01:41.095Z,25.45
2023-01-19T21:04:08.723Z,23.98
2023-01-19T21:06:35.747Z,22.95
2023-01-19T21:09:03.331Z,24.38
2023-01-19T21:11:30.358Z,22.83
2023-01-19T21:13:57.316Z,23.42
2023-01-19T21:16:26.641Z,23.75
2023-01-19T21:18:53.866Z,28.55
2023-01-19T21:21:30.384Z,28.48
2023-01-19T21:23:59.792Z,22.75
2023-01-19T21:26:26.846Z,24.63
2023-01-19T21:28:53.818Z,23.60
2023-01-19T21:31:23.104Z,24.77
2023-01-19T21:33:53.468Z,23.55
2023-01-19T21:36:22.566Z,23.13
2023-01-19T21:38:51.473Z,23.60
2023-01-19T21:41:18.952Z,23.02
2023-01-19T21:43:46.306Z,22.45
2023-01-19T21:46:21.739Z,23.27
2023-01-19T21:48:48.971Z,23.13
2023-01-19T21:51:16.194Z,21.15
2023-01-19T21:53:43.269Z,21.13
2023-01-19T21:56:11.356Z,17.92
2023-01-19T21:58:38.839Z,18.20
2023-01-19T22:01:13.658Z,20.02
2023-01-19T22:03:41.617Z,20.45
2023-01-19T22:06:10.965Z,18.65
2023-01-19T22:08:38.023Z,19.55
2023-01-19T22:11:06.438Z,19.73
2023-01-19T22:13:34.809Z,19.85
2023-01-19T22:16:03.755Z,20.10
2023-01-19T22:18:30.827Z,20.27
2023-01-19T22:21:12.714Z,21.25
2023-01-19T22:23:39.998Z,20.20
2023-01-19T22:26:08.040Z,20.05
2023-01-19T22:28:35.874Z,20.73
2023-01-19T22:31:14.653Z,21.73
2023-01-19T22:33:42.647Z,21.08
2023-01-19T22:36:15.686Z,18.42
2023-01-19T22:38:44.149Z,17.52
2023-01-19T22:41:17.810Z,17.40
2023-01-19T22:43:45.023Z,17.23
2023-01-19T22:46:12.311Z,16.00
2023-01-19T22:48:40.528Z,17.30
2023-01-19T22:51:07.692Z,17.13
2023-01-19T22:53:34.636Z,16.50
2023-01-19T22:56:08.973Z,15.38
2023-01-19T22:58:35.817Z,14.23
2023-01-19T23:01:07.566Z,14.50
2023-01-19T23:03:35.116Z,15.75
2023-01-19T23:06:11.475Z,16.25
2023-01-19T23:08:39.178Z,15.18
2023-01-19T23:11:07.887Z,14.52
2023-01-19T23:13:34.931Z,15.15
2023-01-19T23:16:02.732Z,14.55
2023-01-19T23:18:30.268Z,14.80
2023-01-19T23:21:15.651Z,14.05
2023-01-19T23:23:43.661Z,13.45
2023-01-19T23:26:16.171Z,13.55
2023-01-19T23:28:43.516Z,15.00
2023-01-19T23:31:19.048Z,12.98
2023-01-19T23:33:45.965Z,13.55
2023-01-19T23:36:14.125Z,12.07
2023-01-19T23:38:42.074Z,13.82
2023-01-19T23:41:09.054Z,14.02
2023-01-19T23:43:35.909Z,12.20
2023-01-19T23:46:08.190Z,13.10
2023-01-19T23:48:36.065Z,11.40
2023-01-19T23:51:11.401Z,12.07
2023-01-19T23:53:38.561Z,11.73
2023-01-19T23:56:15.812Z,10.48
2023-01-19T23:58:42.636Z,12.00
